Terminal Aerodrome Forecast
Issued by NWS

Home | Current Version | Previous Version | Text Only | Print | Product List | Glossary On
Versions: 1 2 3 4 5 6 7 8 9 10 11 12 13 14 15 16
767
FTUS43 KABR 292320
TAFPIR
TAF
KPIR 292320Z 3000/3024 12015KT P6SM SCT250
     FM300300 13008KT P6SM FEW200
     FM301500 12006KT P6SM SCT045=

USA.gov is the U.S. government's official web portal to all federal, state and local government web resources and services.